Time;durP1;ratioP1;P1;durP2;ratioP2;P2;SDS_P1;SDS_P2;PMS_P1;PMS_P2;Temp;Humidity;BMP_temperature;BMP_pressure;BME280_temperature;BME280_humidity;BME280_pressure;Samples;Min_cycle;Max_cycle;Signal;HPM_P1;HPM_P2
2022/04/11 13:20:38;;;;;;;;;;;;;;;8.71;100.00;100139.51;1603314;86;20533;-84
2022/04/11 13:23:22;;;;;;;;;;;;;;;8.72;100.00;100145.22;1597809;89;20175;-84
2022/04/11 13:26:09;;;;;;;;;;;;;;;8.74;100.00;100138.95;1586424;89;20472;-84
2022/04/11 13:28:55;;;;;;;;;;;;;;;8.76;100.00;100146.31;1602299;89;20183;-84
2022/04/11 13:31:42;;;;;;;;;;;;;;;8.74;100.00;100149.30;1617513;88;20524;-84
2022/04/11 13:34:28;;;;;;;;;;;;;;;8.68;100.00;100151.77;1619043;88;20520;-84
2022/04/11 13:37:21;;;;;;;;;;;;;;;8.60;100.00;100151.78;1618051;87;20172;-84
2022/04/11 13:40:06;;;;;;;;;;;;;;;8.48;100.00;100149.88;1664262;84;20178;-84
2022/04/11 13:42:55;;;;;;;;;;;;;;;8.37;100.00;100147.65;1641441;86;20162;-84
2022/04/11 13:45:41;;;;;;;;;;;;;;;8.27;100.00;100162.63;1632735;86;20196;-84
2022/04/11 13:48:26;;;;;;;;;;;;;;;8.21;100.00;100158.80;1632087;87;20629;-84
2022/04/11 13:51:12;;;;;;;;;;;;;;;8.15;100.00;100164.78;1614142;86;20140;-84
2022/04/11 13:54:00;;;;;;;;;;;;;;;8.11;100.00;100165.88;1626904;86;20196;-84
2022/04/11 13:56:45;;;;;;;;;;;;;;;8.08;100.00;100166.39;1593628;88;20178;-84
2022/04/11 13:59:35;;;;;;;;;;;;;;;8.07;100.00;100168.86;1593316;88;20193;-84
2022/04/11 14:02:20;;;;;;;;;;;;;;;8.06;100.00;100167.23;1602007;89;20940;-84
2022/04/11 14:05:08;;;;;;;;;;;;;;;8.06;100.00;100169.95;1605779;88;20162;-84
2022/04/11 14:07:52;;;;;;;;;;;;;;;8.04;100.00;100163.15;1602579;89;20268;-84
2022/04/11 14:10:41;;;;;;;;;;;;;;;8.01;100.00;100156.86;1605118;89;20575;-84
2022/04/11 14:13:26;;;;;;;;;;;;;;;7.99;100.00;100163.95;1609116;86;20158;-84
2022/04/11 14:16:15;;;;;;;;;;;;;;;7.97;100.00;100164.20;1627843;87;20320;-84
2022/04/11 14:19:00;;;;;;;;;;;;;;;7.97;100.00;100164.76;1631241;85;20150;-84
2022/04/11 14:21:57;;;;;;;;;;;;;;;7.95;100.00;100173.73;1623670;87;20160;-84
2022/04/11 14:24:45;;;;;;;;;;;;;;;7.93;100.00;100173.98;1628402;87;20195;-84
2022/04/11 14:27:31;;;;;;;;;;;;;;;7.93;100.00;100177.25;1650381;85;20157;-84
2022/04/11 14:30:18;;;;;;;;;;;;;;;7.91;100.00;100176.19;1639656;86;20348;-84
2022/04/11 14:33:06;;;;;;;;;;;;;;;7.86;100.00;100183.48;1648998;85;20177;-84
2022/04/11 14:35:52;;;;;;;;;;;;;;;7.80;100.00;100182.66;1651596;85;20470;-84
2022/04/11 14:38:39;;;;;;;;;;;;;;;7.75;100.00;100184.02;1669392;85;20160;-84
2022/04/11 14:41:24;;;;;;;;;;;;;;;7.72;100.00;100194.88;1625054;86;20170;-84
2022/04/11 14:44:09;;;;;;;;;;;;;;;7.70;100.00;100196.23;1623063;87;20201;-84
2022/04/11 14:46:54;;;;;;;;;;;;;;;7.66;100.00;100204.09;1627376;86;20174;-84
2022/04/11 14:49:39;;;;;;;;;;;;;;;7.63;100.00;100209.26;1605474;87;20195;-84
2022/04/11 14:52:24;;;;;;;;;;;;;;;7.59;100.00;100206.27;1612432;88;20175;-84
2022/04/11 14:55:11;;;;;;;;;;;;;;;7.57;100.00;100211.14;1633805;86;20365;-84
2022/04/11 14:57:56;;;;;;;;;;;;;;;7.52;100.00;100215.20;1618320;88;20877;-84
2022/04/11 15:00:41;;;;;;;;;;;;;;;7.49;100.00;100212.98;1619407;86;20302;-84
2022/04/11 15:03:28;;;;;;;;;;;;;;;7.46;100.00;100223.04;1600756;87;20186;-84
2022/04/11 15:06:13;;;;;;;;;;;;;;;7.43;100.00;100219.50;1635295;85;20162;-84
2022/04/11 15:09:00;;;;;;;;;;;;;;;7.42;100.00;100223.28;1625915;87;20188;-85
2022/04/11 15:11:46;;;;;;;;;;;;;;;7.40;100.00;100224.11;1612624;88;20690;-85
2022/04/11 15:14:31;;;;;;;;;;;;;;;7.36;100.00;100224.35;1622275;86;20179;-85
2022/04/11 15:17:16;;;;;;;;;;;;;;;7.35;100.00;100221.37;1627581;86;20235;-85
2022/04/11 15:20:04;;;;;;;;;;;;;;;7.33;100.00;100221.07;1609769;87;20176;-85
2022/04/11 15:22:48;;;;;;;;;;;;;;;7.32;100.00;100215.92;1632169;86;20452;-86
2022/04/11 15:25:37;;;;;;;;;;;;;;;7.31;100.00;100213.72;1620249;87;20192;-85
2022/04/11 15:28:24;;;;;;;;;;;;;;;7.31;100.00;100211.00;1609124;85;20464;-85
2022/04/11 15:31:10;;;;;;;;;;;;;;;7.31;100.00;100215.62;1627354;86;20512;-85
2022/04/11 15:33:55;;;;;;;;;;;;;;;7.32;100.00;100214.56;1630332;86;20159;-85
2022/04/11 15:36:42;;;;;;;;;;;;;;;7.31;100.00;100210.19;1624090;86;20477;-85
2022/04/11 15:39:29;;;;;;;;;;;;;;;7.33;100.00;100214.28;1629774;86;20167;-85
2022/04/11 15:42:16;;;;;;;;;;;;;;;7.33;100.00;100211.56;1604574;89;20163;-85
2022/04/11 15:45:02;;;;;;;;;;;;;;;7.35;100.00;100200.44;1604681;88;20210;-85
2022/04/11 15:47:49;;;;;;;;;;;;;;;7.35;100.00;100196.36;1646988;86;20182;-85
2022/04/11 15:50:34;;;;;;;;;;;;;;;7.36;100.00;100188.47;1635736;85;20158;-84
2022/04/11 15:53:20;;;;;;;;;;;;;;;7.35;100.00;100186.84;1612269;88;20216;-85
2022/04/11 15:56:05;;;;;;;;;;;;;;;7.37;100.00;100182.48;1620712;86;20167;-85
2022/04/11 15:58:58;;;;;;;;;;;;;;;7.35;100.00;100185.48;1624662;87;20229;-85
2022/04/11 16:01:44;;;;;;;;;;;;;;;7.36;100.00;100191.73;1625549;85;20145;-85
2022/04/11 16:04:31;;;;;;;;;;;;;;;7.33;100.00;100198.52;1613894;86;20520;-84
2022/04/11 16:07:15;;;;;;;;;;;;;;;7.33;100.00;100195.25;1653759;85;20210;-85
2022/04/11 16:10:03;;;;;;;;;;;;;;;7.32;100.00;100194.98;1600320;87;20528;-85
2022/04/11 16:12:50;;;;;;;;;;;;;;;7.30;100.00;100198.50;1622146;87;20142;-85
2022/04/11 16:15:40;;;;;;;;;;;;;;;7.31;100.00;100196.05;1657836;85;20185;-85
2022/04/11 16:18:26;;;;;;;;;;;;;;;7.29;100.00;100200.11;1634607;85;20173;-85
2022/04/11 16:21:12;;;;;;;;;;;;;;;7.27;100.00;100197.68;1656120;85;20529;-85
2022/04/11 16:23:59;;;;;;;;;;;;;;;7.27;100.00;100206.34;1626483;86;20154;-84
2022/04/11 16:26:48;;;;;;;;;;;;;;;7.22;100.00;100199.01;1626085;87;20181;-85
2022/04/11 16:29:32;;;;;;;;;;;;;;;7.20;100.00;100199.81;1647575;83;20196;-85
2022/04/11 16:32:21;;;;;;;;;;;;;;;7.16;100.00;100192.44;1588401;87;20413;-85
2022/04/11 16:35:07;;;;;;;;;;;;;;;7.15;100.00;100194.34;1632516;86;20648;-85
2022/04/11 16:37:53;;;;;;;;;;;;;;;7.13;100.00;100198.41;1621063;86;20160;-85
2022/04/11 16:40:38;;;;;;;;;;;;;;;7.12;100.00;100204.36;1629806;86;20158;-85
2022/04/11 16:43:23;;;;;;;;;;;;;;;7.10;100.00;100210.08;1625913;86;20200;-84
2022/04/11 16:46:09;;;;;;;;;;;;;;;7.11;100.00;100208.98;1609912;88;20153;-85
2022/04/11 16:48:55;;;;;;;;;;;;;;;7.14;100.00;100205.47;1627821;86;20221;-85
2022/04/11 16:51:42;;;;;;;;;;;;;;;7.14;100.00;100209.55;1624056;87;20741;-84
2022/04/11 16:54:26;;;;;;;;;;;;;;;7.10;100.00;100206.00;1610356;86;20495;-85
2022/04/11 16:57:13;;;;;;;;;;;;;;;7.10;100.00;100203.83;1644261;85;20143;-84
2022/04/11 16:59:58;;;;;;;;;;;;;;;7.07;100.00;100196.18;1614962;87;20169;-85
2022/04/11 17:02:43;;;;;;;;;;;;;;;7.06;100.00;100193.20;1629843;85;20150;-85
2022/04/11 17:05:27;;;;;;;;;;;;;;;7.05;100.00;100198.36;1637924;85;20508;-85
2022/04/11 17:08:12;;;;;;;;;;;;;;;7.02;100.00;100198.86;1638772;86;21222;-84
2022/04/11 17:10:57;;;;;;;;;;;;;;;7.02;100.00;100209.73;1605382;87;20182;-85
2022/04/11 17:13:41;;;;;;;;;;;;;;;7.01;100.00;100204.84;1640038;86;20198;-85
2022/04/11 17:19:29;;;;;;;;;;;;;;;6.99;100.00;100204.83;1608938;86;20247;-85
2022/04/11 17:22:14;;;;;;;;;;;;;;;6.99;100.00;100206.19;1620478;87;20153;-85
2022/04/11 17:25:00;;;;;;;;;;;;;;;6.97;100.00;100205.08;1634126;86;20504;-85
2022/04/11 17:27:47;;;;;;;;;;;;;;;6.95;100.00;100205.91;1615576;87;20173;-85
2022/04/11 17:30:33;;;;;;;;;;;;;;;6.94;100.00;100200.17;1601728;87;20192;-85
2022/04/11 17:33:18;;;;;;;;;;;;;;;6.93;100.00;100203.17;1608709;88;20232;-84
2022/04/11 17:36:03;;;;;;;;;;;;;;;6.91;100.00;100202.61;1618662;87;20153;-84
2022/04/11 17:38:53;;;;;;;;;;;;;;;6.89;100.00;100203.67;1624265;87;20204;-84
2022/04/11 17:41:38;;;;;;;;;;;;;;;6.87;100.00;100203.14;1625575;87;20160;-84
2022/04/11 17:44:23;;;;;;;;;;;;;;;6.85;100.00;100194.42;1628339;87;20188;-85
2022/04/11 17:47:09;;;;;;;;;;;;;;;6.84;100.00;100195.48;1626973;88;20160;-84
2022/04/11 17:49:56;;;;;;;;;;;;;;;6.84;100.00;100192.77;1652482;85;20755;-84
2022/04/11 17:52:41;;;;;;;;;;;;;;;6.84;100.00;100191.41;1620980;87;20157;-85
2022/04/11 17:55:27;;;;;;;;;;;;;;;6.83;100.00;100184.36;1652831;86;20155;-85
2022/04/11 17:58:12;;;;;;;;;;;;;;;6.84;100.00;100183.27;1653567;84;20160;-85
2022/04/11 18:01:00;;;;;;;;;;;;;;;6.83;100.00;100172.13;1636751;86;20339;-85
2022/04/11 18:03:45;;;;;;;;;;;;;;;6.84;100.00;100169.69;1613141;85;20204;-84
2022/04/11 18:06:31;;;;;;;;;;;;;;;6.85;100.00;100165.91;1651997;85;20173;-84
2022/04/11 18:09:16;;;;;;;;;;;;;;;6.85;100.00;100159.12;1641329;86;20158;-84
2022/04/11 18:12:06;;;;;;;;;;;;;;;6.86;100.00;100149.88;1614202;86;20151;-84
2022/04/11 18:14:48;;;;;;;;;;;;;;;6.87;100.00;100150.17;1673522;84;20205;-84
2022/04/11 18:17:36;;;;;;;;;;;;;;;6.85;100.00;100138.75;1638653;86;20577;-84
2022/04/11 18:20:22;;;;;;;;;;;;;;;6.85;100.00;100138.75;1650505;85;20153;-84
2022/04/11 18:23:09;;;;;;;;;;;;;;;6.86;100.00;100143.63;1650248;86;20160;-84
2022/04/11 18:25:54;;;;;;;;;;;;;;;6.84;100.00;100138.45;1651513;86;20861;-85
2022/04/11 18:31:49;;;;;;;;;;;;;;;6.79;100.00;100104.47;1624799;86;20184;-85
2022/04/11 18:34:36;;;;;;;;;;;;;;;6.79;100.00;100113.17;1617356;87;20191;-85
2022/04/11 18:37:22;;;;;;;;;;;;;;;6.77;100.00;100114.77;1604161;87;20281;-85
2022/04/11 18:40:10;;;;;;;;;;;;;;;6.73;100.00;100104.18;1650225;86;20217;-84
2022/04/11 18:42:58;;;;;;;;;;;;;;;6.72;100.00;100101.17;1658754;85;20176;-85
2022/04/11 18:45:45;;;;;;;;;;;;;;;6.71;100.00;100100.91;1593640;89;20159;-85
2022/04/11 18:48:34;;;;;;;;;;;;;;;6.68;100.00;100098.17;1613587;88;20189;-85
2022/04/11 18:51:19;;;;;;;;;;;;;;;6.70;100.00;100099.80;1619051;87;20184;-85
2022/04/11 18:54:04;;;;;;;;;;;;;;;6.70;100.00;100097.08;1622520;87;20196;-85
2022/04/11 18:56:49;;;;;;;;;;;;;;;6.70;100.00;100084.86;1632314;86;20165;-85
2022/04/11 18:59:34;;;;;;;;;;;;;;;6.72;100.00;100085.42;1639147;86;20186;-85
2022/04/11 19:02:22;;;;;;;;;;;;;;;6.73;100.00;100083.00;1646985;86;20410;-84
2022/04/11 19:05:08;;;;;;;;;;;;;;;6.73;100.00;100091.15;1617263;88;20214;-85
2022/04/11 19:07:53;;;;;;;;;;;;;;;6.71;100.00;100092.76;1617824;88;20157;-85
2022/04/11 19:10:38;;;;;;;;;;;;;;;6.71;100.00;100080.54;1619204;86;20457;-85
2022/04/11 19:13:24;;;;;;;;;;;;;;;6.71;100.00;100080.54;1617155;87;20185;-85
2022/04/11 19:16:11;;;;;;;;;;;;;;;6.71;100.00;100084.61;1616695;87;20172;-86
2022/04/11 19:18:56;;;;;;;;;;;;;;;6.72;100.00;100090.86;1602325;86;20211;-85
2022/04/11 19:21:43;;;;;;;;;;;;;;;6.69;100.00;100094.91;1646512;85;20167;-85
2022/04/11 19:24:29;;;;;;;;;;;;;;;6.67;100.00;100092.99;1647392;85;20573;-85
2022/04/11 19:27:14;;;;;;;;;;;;;;;6.66;100.00;100088.66;1601215;88;20166;-83
2022/04/11 19:29:59;;;;;;;;;;;;;;;6.65;100.00;100091.08;1605533;87;20160;-83
2022/04/11 19:32:45;;;;;;;;;;;;;;;6.64;100.00;100094.88;1602279;88;20435;-83
2022/04/11 19:35:33;;;;;;;;;;;;;;;6.63;100.00;100106.84;1616405;86;20162;-83
2022/04/11 19:38:18;;;;;;;;;;;;;;;6.61;100.00;100103.02;1643489;86;20439;-83
2022/04/11 19:41:05;;;;;;;;;;;;;;;6.62;100.00;100110.61;1645005;86;20188;-83
2022/04/11 19:43:52;;;;;;;;;;;;;;;6.62;100.00;100114.69;1649457;85;20150;-82
2022/04/11 19:46:38;;;;;;;;;;;;;;;6.60;100.00;100120.91;1652058;86;21579;-82
2022/04/11 19:52:27;;;;;;;;;;;;;;;6.58;100.00;100121.19;1638029;85;20187;-83
2022/04/11 19:55:12;;;;;;;;;;;;;;;6.56;100.00;100134.75;1607581;88;20178;-83
2022/04/11 19:57:59;;;;;;;;;;;;;;;6.56;100.00;100145.60;1608888;87;20484;-83
2022/04/11 20:00:43;;;;;;;;;;;;;;;6.55;100.00;100149.37;1635053;85;21197;-83
2022/04/11 20:03:29;;;;;;;;;;;;;;;6.55;100.00;100157.52;1635941;86;20226;-84
2022/04/11 20:06:14;;;;;;;;;;;;;;;6.57;100.00;100158.90;1635602;86;20187;-84
2022/04/11 20:09:02;;;;;;;;;;;;;;;6.55;100.00;100167.02;1634216;86;20455;-84
2022/04/11 20:11:48;;;;;;;;;;;;;;;6.54;100.00;100171.64;1619939;88;20662;-83
2022/04/11 20:14:33;;;;;;;;;;;;;;;6.55;100.00;100179.24;1622223;87;20194;-84
2022/04/11 20:17:18;;;;;;;;;;;;;;;6.53;100.00;100178.16;1620718;88;20157;-84
2022/04/11 20:20:04;;;;;;;;;;;;;;;6.53;100.00;100174.09;1632992;85;20202;-84
2022/04/11 20:22:55;;;;;;;;;;;;;;;6.54;100.00;100177.08;1624905;86;33951;-84
2022/04/11 20:25:41;;;;;;;;;;;;;;;6.51;100.00;100176.78;1618313;86;20149;-84
2022/04/11 20:28:26;;;;;;;;;;;;;;;6.51;100.00;100187.64;1614752;88;20200;-84
2022/04/11 20:31:12;;;;;;;;;;;;;;;6.50;100.00;100185.98;1594591;88;20185;-83
2022/04/11 20:33:57;;;;;;;;;;;;;;;6.50;100.00;100191.42;1628387;87;20176;-84
2022/04/11 20:36:44;;;;;;;;;;;;;;;6.48;100.00;100193.56;1597420;88;20169;-84
2022/04/11 20:39:29;;;;;;;;;;;;;;;6.49;100.00;100192.50;1627976;87;20172;-84
2022/04/11 20:42:14;;;;;;;;;;;;;;;6.48;100.00;100207.14;1627293;87;20152;-84
2022/04/11 20:45:01;;;;;;;;;;;;;;;6.49;100.00;100202.01;1630835;87;20157;-84
2022/04/11 20:47:48;;;;;;;;;;;;;;;6.48;100.00;100204.42;1602112;88;20193;-84
2022/04/11 20:50:35;;;;;;;;;;;;;;;6.47;100.00;100203.61;1621733;87;20171;-84
2022/04/11 20:53:22;;;;;;;;;;;;;;;6.43;100.00;100206.03;1618610;87;20356;-83
2022/04/11 20:56:07;;;;;;;;;;;;;;;6.39;100.00;100208.97;1624864;87;20764;-84
2022/04/11 20:58:54;;;;;;;;;;;;;;;6.37;100.00;100202.98;1629451;87;20165;-83
2022/04/11 21:01:40;;;;;;;;;;;;;;;6.36;100.00;100200.54;1628832;86;20163;-84
2022/04/11 21:04:29;;;;;;;;;;;;;;;6.34;100.00;100208.93;1612859;88;20161;-84
2022/04/11 21:07:15;;;;;;;;;;;;;;;6.33;100.00;100208.66;1637161;87;20154;-84
2022/04/11 21:10:03;;;;;;;;;;;;;;;6.29;100.00;100221.09;1605347;87;20494;-84
2022/04/11 21:12:49;;;;;;;;;;;;;;;6.28;100.00;100222.19;1650749;86;20846;-84
2022/04/11 21:15:38;;;;;;;;;;;;;;;6.28;100.00;100222.19;1654632;86;20470;-84
2022/04/11 21:18:23;;;;;;;;;;;;;;;6.33;100.00;100212.73;1612927;86;20185;-84
2022/04/11 21:21:08;;;;;;;;;;;;;;;6.29;100.00;100204.81;1637989;87;20166;-83
2022/04/11 21:23:54;;;;;;;;;;;;;;;6.22;100.00;100210.98;1632224;86;20211;-83
2022/04/11 21:26:39;;;;;;;;;;;;;;;6.13;100.00;100205.22;1644785;86;21553;-83
2022/04/11 21:29:24;;;;;;;;;;;;;;;6.06;100.00;100204.59;1637759;86;20183;-83
2022/04/11 21:32:10;;;;;;;;;;;;;;;6.01;100.00;100216.75;1604944;88;20177;-82
2022/04/11 21:34:55;;;;;;;;;;;;;;;5.94;100.00;100208.80;1629604;86;20181;-83
2022/04/11 21:37:40;;;;;;;;;;;;;;;5.84;100.00;100209.20;1629163;86;20157;-83
2022/04/11 21:40:24;;;;;;;;;;;;;;;5.75;100.00;100202.85;1634448;86;20891;-84
2022/04/11 21:43:11;;;;;;;;;;;;;;;5.67;100.00;100202.49;1634273;86;20163;-83
2022/04/11 21:45:56;;;;;;;;;;;;;;;5.58;100.00;100209.69;1631304;87;20729;-84
2022/04/11 21:48:40;;;;;;;;;;;;;;;5.52;100.00;100205.30;1627220;86;20387;-84
2022/04/11 21:51:26;;;;;;;;;;;;;;;5.46;100.00;100203.57;1628851;86;20160;-83
2022/04/11 21:54:11;;;;;;;;;;;;;;;5.39;100.00;100201.61;1635474;87;20160;-83
2022/04/11 21:56:56;;;;;;;;;;;;;;;5.33;100.00;100197.99;1622505;87;20153;-84
2022/04/11 21:59:43;;;;;;;;;;;;;;;5.30;100.00;100194.44;1623588;87;20458;-83
2022/04/11 22:05:30;;;;;;;;;;;;;;;5.17;100.00;100196.16;1624994;87;20160;-83
2022/04/11 22:08:16;;;;;;;;;;;;;;;5.11;100.00;100199.31;1631106;87;20164;-83
2022/04/11 22:11:03;;;;;;;;;;;;;;;5.13;100.00;100200.43;1629432;87;20168;-83
2022/04/11 22:13:49;;;;;;;;;;;;;;;5.11;100.00;100193.90;1633780;87;20167;-83
2022/04/11 22:16:34;;;;;;;;;;;;;;;5.12;100.00;100199.62;1632279;87;20144;-84
2022/04/11 22:19:19;;;;;;;;;;;;;;;5.12;100.00;100193.39;1605947;89;20178;-84
2022/04/11 22:22:04;;;;;;;;;;;;;;;5.06;100.00;100189.77;1600085;89;20217;-84
2022/04/11 22:24:52;;;;;;;;;;;;;;;5.07;100.00;100186.00;1604007;88;20166;-84
2022/04/11 22:27:36;;;;;;;;;;;;;;;5.09;100.00;100182.48;1614819;87;20694;-84
2022/04/11 22:30:22;;;;;;;;;;;;;;;5.12;100.00;100180.66;1618451;87;20153;-84
2022/04/11 22:33:07;;;;;;;;;;;;;;;5.12;100.00;100169.01;1623762;87;20187;-83
2022/04/11 22:35:54;;;;;;;;;;;;;;;5.13;100.00;100173.34;1620126;88;20298;-83
2022/04/11 22:38:38;;;;;;;;;;;;;;;5.13;100.00;100159.27;1616142;87;20169;-84
2022/04/11 22:41:23;;;;;;;;;;;;;;;5.18;100.00;100165.28;1618360;88;20531;-83
2022/04/11 22:44:08;;;;;;;;;;;;;;;5.19;100.00;100166.91;1611503;87;20162;-84
2022/04/11 22:46:53;;;;;;;;;;;;;;;5.21;100.00;100155.84;1605992;88;20200;-84
2022/04/11 22:49:38;;;;;;;;;;;;;;;5.23;100.00;100146.93;1605399;88;20835;-83
2022/04/11 22:52:23;;;;;;;;;;;;;;;5.25;100.00;100144.80;1594218;89;20326;-83
2022/04/11 22:55:09;;;;;;;;;;;;;;;5.25;100.00;100135.31;1622973;86;20175;-84
2022/04/11 22:57:54;;;;;;;;;;;;;;;5.17;100.00;100138.73;1625537;86;20475;-84
2022/04/11 23:00:39;;;;;;;;;;;;;;;5.18;100.00;100132.23;1619640;88;20440;-84
2022/04/11 23:03:26;;;;;;;;;;;;;;;5.12;100.00;100142.73;1619819;88;21343;-83
2022/04/11 23:06:10;;;;;;;;;;;;;;;5.08;100.00;100140.23;1622423;87;20156;-83
2022/04/11 23:08:56;;;;;;;;;;;;;;;5.06;100.00;100154.55;1619131;86;20167;-83
2022/04/11 23:11:42;;;;;;;;;;;;;;;5.03;100.00;100155.06;1617893;86;20323;-83
2022/04/11 23:14:27;;;;;;;;;;;;;;;4.99;100.00;100153.91;1613206;88;20473;-83
2022/04/11 23:17:11;;;;;;;;;;;;;;;4.95;100.00;100154.14;1616168;88;21095;-83
2022/04/11 23:19:57;;;;;;;;;;;;;;;4.93;100.00;100150.86;1618965;88;20160;-84
2022/04/11 23:22:42;;;;;;;;;;;;;;;4.92;100.00;100150.56;1600868;87;20176;-84
2022/04/11 23:25:27;;;;;;;;;;;;;;;4.89;100.00;100148.36;1610156;86;20181;-83
2022/04/11 23:28:12;;;;;;;;;;;;;;;4.87;100.00;100150.48;1620276;86;21138;-83
2022/04/11 23:30:57;;;;;;;;;;;;;;;4.84;100.00;100145.58;1611417;86;20184;-84
2022/04/11 23:33:42;;;;;;;;;;;;;;;4.79;100.00;100143.61;1624690;86;20160;-83
2022/04/11 23:36:31;;;;;;;;;;;;;;;4.76;100.00;100136.00;1632240;87;20156;-84
2022/04/11 23:39:15;;;;;;;;;;;;;;;4.69;100.00;100132.10;1632074;87;20203;-84
2022/04/11 23:42:00;;;;;;;;;;;;;;;4.64;100.00;100138.80;1631241;87;20164;-84
2022/04/11 23:44:44;;;;;;;;;;;;;;;4.62;100.00;100132.80;1629950;87;21032;-83
2022/04/11 23:47:30;;;;;;;;;;;;;;;4.61;100.00;100125.77;1643587;85;20161;-84
2022/04/11 23:50:15;;;;;;;;;;;;;;;4.59;100.00;100132.49;1585364;88;20155;-83
2022/04/11 23:53:01;;;;;;;;;;;;;;;4.60;100.00;100127.35;1589213;89;20187;-84
2022/04/11 23:55:47;;;;;;;;;;;;;;;4.58;100.00;100128.97;1596313;89;20167;-84
2022/04/11 23:58:32;;;;;;;;;;;;;;;4.55;100.00;100130.83;1614671;88;20148;-83
